sensor_id;sensor_type;location;lat;lon;timestamp;P1;durP1;ratioP1;P2;durP2;ratioP2
16957;SDS011;8595;52.542;11.974;2023-11-18T00:01:26;17.63;;;12.40;;
16957;SDS011;8595;52.542;11.974;2023-11-18T00:03:57;21.37;;;13.27;;
16957;SDS011;8595;52.542;11.974;2023-11-18T00:06:24;19.00;;;14.37;;
16957;SDS011;8595;52.542;11.974;2023-11-18T00:08:51;21.63;;;13.37;;
16957;SDS011;8595;52.542;11.974;2023-11-18T00:11:19;17.17;;;12.63;;
16957;SDS011;8595;52.542;11.974;2023-11-18T00:13:46;23.50;;;14.77;;
16957;SDS011;8595;52.542;11.974;2023-11-18T00:16:13;19.50;;;13.43;;
16957;SDS011;8595;52.542;11.974;2023-11-18T00:18:41;19.83;;;12.73;;
16957;SDS011;8595;52.542;11.974;2023-11-18T00:21:08;22.33;;;14.87;;
16957;SDS011;8595;52.542;11.974;2023-11-18T00:23:36;21.93;;;14.43;;
16957;SDS011;8595;52.542;11.974;2023-11-18T00:26:04;22.97;;;14.13;;
16957;SDS011;8595;52.542;11.974;2023-11-18T00:28:34;19.77;;;12.83;;
16957;SDS011;8595;52.542;11.974;2023-11-18T00:31:02;20.83;;;14.77;;
16957;SDS011;8595;52.542;11.974;2023-11-18T00:33:33;23.93;;;13.87;;
16957;SDS011;8595;52.542;11.974;2023-11-18T00:36:00;18.30;;;12.87;;
16957;SDS011;8595;52.542;11.974;2023-11-18T00:38:27;20.17;;;12.97;;
16957;SDS011;8595;52.542;11.974;2023-11-18T00:40:54;17.60;;;12.53;;
16957;SDS011;8595;52.542;11.974;2023-11-18T00:43:22;17.67;;;12.93;;
16957;SDS011;8595;52.542;11.974;2023-11-18T00:45:51;19.50;;;13.13;;
16957;SDS011;8595;52.542;11.974;2023-11-18T00:48:17;16.50;;;11.73;;
16957;SDS011;8595;52.542;11.974;2023-11-18T00:50:45;18.80;;;13.97;;
16957;SDS011;8595;52.542;11.974;2023-11-18T00:53:13;18.37;;;11.83;;
16957;SDS011;8595;52.542;11.974;2023-11-18T00:55:40;17.07;;;11.53;;
16957;SDS011;8595;52.542;11.974;2023-11-18T00:58:07;18.93;;;13.10;;
16957;SDS011;8595;52.542;11.974;2023-11-18T01:00:35;19.13;;;13.13;;
16957;SDS011;8595;52.542;11.974;2023-11-18T01:03:04;17.53;;;12.67;;
16957;SDS011;8595;52.542;11.974;2023-11-18T01:05:32;20.97;;;15.20;;
16957;SDS011;8595;52.542;11.974;2023-11-18T01:07:59;21.43;;;15.43;;
16957;SDS011;8595;52.542;11.974;2023-11-18T01:10:27;19.43;;;13.40;;
16957;SDS011;8595;52.542;11.974;2023-11-18T01:12:55;18.53;;;13.23;;
16957;SDS011;8595;52.542;11.974;2023-11-18T01:15:23;19.90;;;14.07;;
16957;SDS011;8595;52.542;11.974;2023-11-18T01:17:53;17.73;;;12.37;;
16957;SDS011;8595;52.542;11.974;2023-11-18T01:20:21;20.30;;;12.87;;
16957;SDS011;8595;52.542;11.974;2023-11-18T01:22:48;18.40;;;13.50;;
16957;SDS011;8595;52.542;11.974;2023-11-18T01:25:15;19.87;;;14.13;;
16957;SDS011;8595;52.542;11.974;2023-11-18T01:27:44;21.30;;;15.00;;
16957;SDS011;8595;52.542;11.974;2023-11-18T01:30:13;19.13;;;12.50;;
16957;SDS011;8595;52.542;11.974;2023-11-18T01:32:42;20.40;;;14.53;;
16957;SDS011;8595;52.542;11.974;2023-11-18T01:35:11;21.07;;;11.83;;
16957;SDS011;8595;52.542;11.974;2023-11-18T01:37:40;19.47;;;13.33;;
16957;SDS011;8595;52.542;11.974;2023-11-18T01:40:07;21.03;;;14.33;;
16957;SDS011;8595;52.542;11.974;2023-11-18T01:42:37;23.33;;;14.27;;
16957;SDS011;8595;52.542;11.974;2023-11-18T01:45:04;19.13;;;13.27;;
16957;SDS011;8595;52.542;11.974;2023-11-18T01:47:36;24.43;;;15.00;;
16957;SDS011;8595;52.542;11.974;2023-11-18T01:50:03;21.33;;;14.43;;
16957;SDS011;8595;52.542;11.974;2023-11-18T01:52:33;23.43;;;14.97;;
16957;SDS011;8595;52.542;11.974;2023-11-18T01:55:03;21.70;;;14.17;;
16957;SDS011;8595;52.542;11.974;2023-11-18T01:57:33;17.90;;;13.50;;
16957;SDS011;8595;52.542;11.974;2023-11-18T02:00:02;19.03;;;13.77;;
16957;SDS011;8595;52.542;11.974;2023-11-18T02:02:31;18.13;;;13.17;;
16957;SDS011;8595;52.542;11.974;2023-11-18T02:05:00;20.20;;;14.70;;
16957;SDS011;8595;52.542;11.974;2023-11-18T02:07:31;20.13;;;14.60;;
16957;SDS011;8595;52.542;11.974;2023-11-18T02:10:04;18.60;;;13.23;;
16957;SDS011;8595;52.542;11.974;2023-11-18T02:12:42;20.87;;;14.47;;
16957;SDS011;8595;52.542;11.974;2023-11-18T02:15:14;24.13;;;15.53;;
16957;SDS011;8595;52.542;11.974;2023-11-18T02:17:44;23.07;;;13.30;;
16957;SDS011;8595;52.542;11.974;2023-11-18T02:20:13;17.17;;;12.60;;
16957;SDS011;8595;52.542;11.974;2023-11-18T02:26:05;18.67;;;13.20;;
16957;SDS011;8595;52.542;11.974;2023-11-18T02:28:32;19.77;;;11.63;;
16957;SDS011;8595;52.542;11.974;2023-11-18T02:31:01;21.07;;;13.30;;
16957;SDS011;8595;52.542;11.974;2023-11-18T02:33:32;22.37;;;15.33;;
16957;SDS011;8595;52.542;11.974;2023-11-18T02:36:06;26.43;;;17.37;;
16957;SDS011;8595;52.542;11.974;2023-11-18T02:38:44;21.00;;;14.40;;
16957;SDS011;8595;52.542;11.974;2023-11-18T02:41:17;20.03;;;13.53;;
16957;SDS011;8595;52.542;11.974;2023-11-18T02:43:47;24.80;;;14.10;;
16957;SDS011;8595;52.542;11.974;2023-11-18T02:46:15;21.43;;;13.87;;
16957;SDS011;8595;52.542;11.974;2023-11-18T02:48:43;20.87;;;14.17;;
16957;SDS011;8595;52.542;11.974;2023-11-18T02:51:12;20.70;;;13.23;;
16957;SDS011;8595;52.542;11.974;2023-11-18T02:53:42;19.00;;;12.57;;
16957;SDS011;8595;52.542;11.974;2023-11-18T02:56:10;20.83;;;14.27;;
16957;SDS011;8595;52.542;11.974;2023-11-18T02:58:39;19.23;;;13.40;;
16957;SDS011;8595;52.542;11.974;2023-11-18T03:01:06;22.27;;;14.70;;
16957;SDS011;8595;52.542;11.974;2023-11-18T03:03:33;22.57;;;14.37;;
16957;SDS011;8595;52.542;11.974;2023-11-18T03:05:59;22.23;;;14.97;;
16957;SDS011;8595;52.542;11.974;2023-11-18T03:08:26;22.63;;;15.80;;
16957;SDS011;8595;52.542;11.974;2023-11-18T03:10:54;18.90;;;12.77;;
16957;SDS011;8595;52.542;11.974;2023-11-18T03:13:22;17.67;;;13.33;;
16957;SDS011;8595;52.542;11.974;2023-11-18T03:15:50;21.30;;;13.37;;
16957;SDS011;8595;52.542;11.974;2023-11-18T03:18:18;21.47;;;13.40;;
16957;SDS011;8595;52.542;11.974;2023-11-18T03:20:45;22.60;;;15.20;;
16957;SDS011;8595;52.542;11.974;2023-11-18T03:23:14;20.10;;;13.37;;
16957;SDS011;8595;52.542;11.974;2023-11-18T03:25:41;18.00;;;13.00;;
16957;SDS011;8595;52.542;11.974;2023-11-18T03:28:08;21.17;;;14.03;;
16957;SDS011;8595;52.542;11.974;2023-11-18T03:30:35;24.00;;;14.40;;
16957;SDS011;8595;52.542;11.974;2023-11-18T03:33:04;24.40;;;14.80;;
16957;SDS011;8595;52.542;11.974;2023-11-18T03:35:35;22.97;;;14.80;;
16957;SDS011;8595;52.542;11.974;2023-11-18T03:38:02;19.30;;;12.77;;
16957;SDS011;8595;52.542;11.974;2023-11-18T03:40:31;19.87;;;12.90;;
16957;SDS011;8595;52.542;11.974;2023-11-18T03:43:00;19.57;;;12.93;;
16957;SDS011;8595;52.542;11.974;2023-11-18T03:45:29;19.67;;;13.43;;
16957;SDS011;8595;52.542;11.974;2023-11-18T03:47:58;19.20;;;12.90;;
16957;SDS011;8595;52.542;11.974;2023-11-18T03:50:29;22.23;;;13.80;;
16957;SDS011;8595;52.542;11.974;2023-11-18T03:52:56;23.30;;;14.93;;
16957;SDS011;8595;52.542;11.974;2023-11-18T03:55:24;22.37;;;12.70;;
16957;SDS011;8595;52.542;11.974;2023-11-18T03:57:51;21.53;;;14.63;;
16957;SDS011;8595;52.542;11.974;2023-11-18T04:00:19;22.53;;;14.57;;
16957;SDS011;8595;52.542;11.974;2023-11-18T04:02:46;20.77;;;14.17;;
16957;SDS011;8595;52.542;11.974;2023-11-18T04:05:13;18.90;;;12.97;;
16957;SDS011;8595;52.542;11.974;2023-11-18T04:07:43;19.60;;;12.23;;
16957;SDS011;8595;52.542;11.974;2023-11-18T04:10:10;23.37;;;14.40;;
16957;SDS011;8595;52.542;11.974;2023-11-18T04:12:40;21.30;;;14.23;;
16957;SDS011;8595;52.542;11.974;2023-11-18T04:15:11;23.47;;;14.57;;
16957;SDS011;8595;52.542;11.974;2023-11-18T04:17:38;20.03;;;13.10;;
16957;SDS011;8595;52.542;11.974;2023-11-18T04:20:05;19.83;;;13.57;;
16957;SDS011;8595;52.542;11.974;2023-11-18T04:22:38;20.63;;;14.03;;
16957;SDS011;8595;52.542;11.974;2023-11-18T04:25:07;21.30;;;14.70;;
16957;SDS011;8595;52.542;11.974;2023-11-18T04:27:35;24.30;;;13.90;;
16957;SDS011;8595;52.542;11.974;2023-11-18T04:30:01;24.63;;;15.43;;
16957;SDS011;8595;52.542;11.974;2023-11-18T04:32:28;20.57;;;13.77;;
16957;SDS011;8595;52.542;11.974;2023-11-18T04:34:57;22.50;;;14.60;;
16957;SDS011;8595;52.542;11.974;2023-11-18T04:37:24;19.67;;;13.13;;
16957;SDS011;8595;52.542;11.974;2023-11-18T04:39:51;22.33;;;14.40;;
16957;SDS011;8595;52.542;11.974;2023-11-18T04:42:20;21.97;;;13.87;;
16957;SDS011;8595;52.542;11.974;2023-11-18T04:44:47;18.10;;;13.37;;
16957;SDS011;8595;52.542;11.974;2023-11-18T04:47:13;22.27;;;14.87;;
16957;SDS011;8595;52.542;11.974;2023-11-18T04:49:43;22.10;;;14.87;;
16957;SDS011;8595;52.542;11.974;2023-11-18T04:52:10;18.10;;;12.53;;
16957;SDS011;8595;52.542;11.974;2023-11-18T04:54:36;24.23;;;15.23;;
16957;SDS011;8595;52.542;11.974;2023-11-18T04:57:03;21.90;;;13.40;;
16957;SDS011;8595;52.542;11.974;2023-11-18T04:59:33;23.77;;;15.47;;
16957;SDS011;8595;52.542;11.974;2023-11-18T05:01:59;24.23;;;15.57;;
16957;SDS011;8595;52.542;11.974;2023-11-18T05:04:27;24.13;;;15.63;;
16957;SDS011;8595;52.542;11.974;2023-11-18T05:06:54;25.17;;;15.63;;
16957;SDS011;8595;52.542;11.974;2023-11-18T05:09:22;25.13;;;15.17;;
16957;SDS011;8595;52.542;11.974;2023-11-18T05:11:49;21.60;;;15.07;;
16957;SDS011;8595;52.542;11.974;2023-11-18T05:14:15;20.93;;;13.63;;
16957;SDS011;8595;52.542;11.974;2023-11-18T05:16:44;27.67;;;17.90;;
16957;SDS011;8595;52.542;11.974;2023-11-18T05:19:10;25.67;;;16.30;;
16957;SDS011;8595;52.542;11.974;2023-11-18T05:21:37;26.20;;;16.37;;
16957;SDS011;8595;52.542;11.974;2023-11-18T05:24:04;31.67;;;20.37;;
16957;SDS011;8595;52.542;11.974;2023-11-18T05:26:32;29.80;;;17.83;;
16957;SDS011;8595;52.542;11.974;2023-11-18T05:29:00;28.03;;;17.50;;
16957;SDS011;8595;52.542;11.974;2023-11-18T05:31:26;24.47;;;15.43;;
16957;SDS011;8595;52.542;11.974;2023-11-18T05:33:55;31.17;;;19.53;;
16957;SDS011;8595;52.542;11.974;2023-11-18T05:36:21;30.60;;;17.40;;
16957;SDS011;8595;52.542;11.974;2023-11-18T05:38:52;23.83;;;15.33;;
16957;SDS011;8595;52.542;11.974;2023-11-18T05:41:20;25.23;;;15.93;;
16957;SDS011;8595;52.542;11.974;2023-11-18T05:43:53;26.70;;;16.17;;
16957;SDS011;8595;52.542;11.974;2023-11-18T05:46:22;25.97;;;15.13;;
16957;SDS011;8595;52.542;11.974;2023-11-18T05:48:51;25.00;;;16.13;;
16957;SDS011;8595;52.542;11.974;2023-11-18T05:51:20;23.73;;;15.90;;
16957;SDS011;8595;52.542;11.974;2023-11-18T05:53:48;24.47;;;15.40;;
16957;SDS011;8595;52.542;11.974;2023-11-18T05:56:16;26.40;;;17.30;;
16957;SDS011;8595;52.542;11.974;2023-11-18T05:58:43;24.50;;;15.70;;
16957;SDS011;8595;52.542;11.974;2023-11-18T06:01:10;26.13;;;16.03;;
16957;SDS011;8595;52.542;11.974;2023-11-18T06:03:37;25.13;;;15.57;;
16957;SDS011;8595;52.542;11.974;2023-11-18T06:06:05;25.70;;;15.63;;
16957;SDS011;8595;52.542;11.974;2023-11-18T06:08:34;22.10;;;15.37;;
16957;SDS011;8595;52.542;11.974;2023-11-18T06:11:01;23.00;;;15.73;;
16957;SDS011;8595;52.542;11.974;2023-11-18T06:13:38;22.60;;;15.53;;
16957;SDS011;8595;52.542;11.974;2023-11-18T06:16:08;22.90;;;15.80;;
16957;SDS011;8595;52.542;11.974;2023-11-18T06:18:40;24.37;;;14.97;;
16957;SDS011;8595;52.542;11.974;2023-11-18T06:21:10;24.87;;;16.03;;
16957;SDS011;8595;52.542;11.974;2023-11-18T06:23:38;25.57;;;14.37;;
16957;SDS011;8595;52.542;11.974;2023-11-18T06:26:05;21.43;;;14.50;;
16957;SDS011;8595;52.542;11.974;2023-11-18T06:28:32;25.00;;;16.53;;
16957;SDS011;8595;52.542;11.974;2023-11-18T06:30:59;23.07;;;15.33;;
16957;SDS011;8595;52.542;11.974;2023-11-18T06:33:26;27.10;;;16.90;;
16957;SDS011;8595;52.542;11.974;2023-11-18T06:35:53;22.57;;;14.73;;
16957;SDS011;8595;52.542;11.974;2023-11-18T06:38:21;23.83;;;15.63;;
16957;SDS011;8595;52.542;11.974;2023-11-18T06:40:51;23.90;;;16.13;;
16957;SDS011;8595;52.542;11.974;2023-11-18T06:43:18;22.37;;;15.10;;
16957;SDS011;8595;52.542;11.974;2023-11-18T06:45:45;21.33;;;13.93;;
16957;SDS011;8595;52.542;11.974;2023-11-18T06:48:13;21.03;;;15.80;;
16957;SDS011;8595;52.542;11.974;2023-11-18T06:50:40;36.80;;;21.87;;
16957;SDS011;8595;52.542;11.974;2023-11-18T06:53:09;44.03;;;24.97;;
16957;SDS011;8595;52.542;11.974;2023-11-18T06:55:36;28.70;;;17.67;;
16957;SDS011;8595;52.542;11.974;2023-11-18T06:58:04;24.03;;;15.80;;
16957;SDS011;8595;52.542;11.974;2023-11-18T07:00:31;28.50;;;17.53;;
16957;SDS011;8595;52.542;11.974;2023-11-18T07:02:58;28.27;;;18.07;;
16957;SDS011;8595;52.542;11.974;2023-11-18T07:05:26;28.00;;;17.80;;
16957;SDS011;8595;52.542;11.974;2023-11-18T07:07:53;24.43;;;16.10;;
16957;SDS011;8595;52.542;11.974;2023-11-18T07:10:20;25.80;;;16.93;;
16957;SDS011;8595;52.542;11.974;2023-11-18T07:12:47;25.23;;;17.03;;
16957;SDS011;8595;52.542;11.974;2023-11-18T07:15:15;24.43;;;16.63;;
16957;SDS011;8595;52.542;11.974;2023-11-18T07:17:42;23.50;;;16.17;;
16957;SDS011;8595;52.542;11.974;2023-11-18T07:20:09;23.07;;;15.60;;
16957;SDS011;8595;52.542;11.974;2023-11-18T07:22:38;23.10;;;14.43;;
16957;SDS011;8595;52.542;11.974;2023-11-18T07:25:05;22.13;;;15.57;;
16957;SDS011;8595;52.542;11.974;2023-11-18T07:27:34;22.83;;;14.40;;
16957;SDS011;8595;52.542;11.974;2023-11-18T07:30:01;20.00;;;14.40;;
16957;SDS011;8595;52.542;11.974;2023-11-18T07:32:29;21.57;;;14.20;;
16957;SDS011;8595;52.542;11.974;2023-11-18T07:34:56;21.77;;;14.37;;
16957;SDS011;8595;52.542;11.974;2023-11-18T07:37:23;22.50;;;15.23;;
16957;SDS011;8595;52.542;11.974;2023-11-18T07:39:52;24.03;;;17.37;;
16957;SDS011;8595;52.542;11.974;2023-11-18T07:42:20;20.13;;;15.53;;
16957;SDS011;8595;52.542;11.974;2023-11-18T07:44:47;24.27;;;16.50;;
16957;SDS011;8595;52.542;11.974;2023-11-18T07:47:14;23.87;;;16.27;;
16957;SDS011;8595;52.542;11.974;2023-11-18T07:49:42;22.43;;;15.83;;
16957;SDS011;8595;52.542;11.974;2023-11-18T07:52:10;21.87;;;15.67;;
16957;SDS011;8595;52.542;11.974;2023-11-18T07:54:37;22.30;;;16.67;;
16957;SDS011;8595;52.542;11.974;2023-11-18T07:57:04;21.17;;;14.97;;
16957;SDS011;8595;52.542;11.974;2023-11-18T07:59:35;21.97;;;14.77;;
16957;SDS011;8595;52.542;11.974;2023-11-18T08:02:02;22.00;;;15.37;;
16957;SDS011;8595;52.542;11.974;2023-11-18T08:04:33;22.40;;;14.57;;
16957;SDS011;8595;52.542;11.974;2023-11-18T08:07:02;17.67;;;11.80;;
16957;SDS011;8595;52.542;11.974;2023-11-18T08:09:30;19.93;;;13.77;;
16957;SDS011;8595;52.542;11.974;2023-11-18T08:11:57;19.03;;;13.63;;
16957;SDS011;8595;52.542;11.974;2023-11-18T08:14:24;18.33;;;12.37;;
16957;SDS011;8595;52.542;11.974;2023-11-18T08:16:51;19.77;;;12.70;;
16957;SDS011;8595;52.542;11.974;2023-11-18T08:19:20;18.17;;;12.30;;
16957;SDS011;8595;52.542;11.974;2023-11-18T08:21:48;20.00;;;14.03;;
16957;SDS011;8595;52.542;11.974;2023-11-18T08:24:16;18.87;;;14.73;;
16957;SDS011;8595;52.542;11.974;2023-11-18T08:26:43;18.90;;;14.33;;
16957;SDS011;8595;52.542;11.974;2023-11-18T08:29:12;20.17;;;13.77;;
16957;SDS011;8595;52.542;11.974;2023-11-18T08:31:39;21.27;;;14.63;;
16957;SDS011;8595;52.542;11.974;2023-11-18T08:34:05;31.23;;;16.70;;
16957;SDS011;8595;52.542;11.974;2023-11-18T08:36:33;21.30;;;16.03;;
16957;SDS011;8595;52.542;11.974;2023-11-18T08:38:59;21.80;;;16.40;;
16957;SDS011;8595;52.542;11.974;2023-11-18T08:41:27;22.83;;;16.77;;
16957;SDS011;8595;52.542;11.974;2023-11-18T08:43:56;19.03;;;14.30;;
16957;SDS011;8595;52.542;11.974;2023-11-18T08:46:23;17.25;;;14.52;;
16957;SDS011;8595;52.542;11.974;2023-11-18T08:48:50;17.20;;;13.43;;
16957;SDS011;8595;52.542;11.974;2023-11-18T08:51:16;17.48;;;13.63;;
16957;SDS011;8595;52.542;11.974;2023-11-18T08:53:43;15.00;;;13.27;;
16957;SDS011;8595;52.542;11.974;2023-11-18T08:56:10;20.13;;;15.73;;
16957;SDS011;8595;52.542;11.974;2023-11-18T08:58:41;21.08;;;15.95;;
16957;SDS011;8595;52.542;11.974;2023-11-18T09:01:09;16.52;;;13.65;;
16957;SDS011;8595;52.542;11.974;2023-11-18T09:03:38;16.80;;;13.18;;
16957;SDS011;8595;52.542;11.974;2023-11-18T09:06:08;13.65;;;10.40;;
16957;SDS011;8595;52.542;11.974;2023-11-18T09:08:42;15.55;;;12.80;;
16957;SDS011;8595;52.542;11.974;2023-11-18T09:11:11;16.92;;;13.38;;
16957;SDS011;8595;52.542;11.974;2023-11-18T09:13:41;16.30;;;12.73;;
16957;SDS011;8595;52.542;11.974;2023-11-18T09:16:10;19.38;;;14.45;;
16957;SDS011;8595;52.542;11.974;2023-11-18T09:18:38;16.03;;;11.97;;
16957;SDS011;8595;52.542;11.974;2023-11-18T09:21:08;25.55;;;20.25;;
16957;SDS011;8595;52.542;11.974;2023-11-18T09:23:39;16.95;;;13.30;;
16957;SDS011;8595;52.542;11.974;2023-11-18T09:26:07;14.65;;;11.63;;
16957;SDS011;8595;52.542;11.974;2023-11-18T09:28:35;17.40;;;13.90;;
16957;SDS011;8595;52.542;11.974;2023-11-18T09:31:04;16.95;;;14.05;;
16957;SDS011;8595;52.542;11.974;2023-11-18T09:33:36;16.55;;;12.88;;
16957;SDS011;8595;52.542;11.974;2023-11-18T09:36:05;19.10;;;14.80;;
16957;SDS011;8595;52.542;11.974;2023-11-18T09:38:34;16.55;;;14.05;;
16957;SDS011;8595;52.542;11.974;2023-11-18T09:41:01;17.10;;;12.95;;
16957;SDS011;8595;52.542;11.974;2023-11-18T09:43:32;15.55;;;12.50;;
16957;SDS011;8595;52.542;11.974;2023-11-18T09:46:09;14.73;;;12.48;;
16957;SDS011;8595;52.542;11.974;2023-11-18T09:48:39;16.63;;;13.38;;
16957;SDS011;8595;52.542;11.974;2023-11-18T09:51:12;15.70;;;13.88;;
16957;SDS011;8595;52.542;11.974;2023-11-18T09:53:42;23.88;;;19.20;;
16957;SDS011;8595;52.542;11.974;2023-11-18T09:56:13;16.02;;;14.30;;
16957;SDS011;8595;52.542;11.974;2023-11-18T09:58:54;16.90;;;13.82;;
16957;SDS011;8595;52.542;11.974;2023-11-18T10:01:30;19.17;;;16.38;;
16957;SDS011;8595;52.542;11.974;2023-11-18T10:03:59;20.50;;;17.60;;
16957;SDS011;8595;52.542;11.974;2023-11-18T10:06:31;21.88;;;18.80;;
16957;SDS011;8595;52.542;11.974;2023-11-18T10:09:00;15.40;;;13.13;;
16957;SDS011;8595;52.542;11.974;2023-11-18T10:11:40;13.88;;;12.15;;
16957;SDS011;8595;52.542;11.974;2023-11-18T10:14:07;15.00;;;11.70;;
16957;SDS011;8595;52.542;11.974;2023-11-18T10:16:36;12.50;;;9.88;;
16957;SDS011;8595;52.542;11.974;2023-11-18T10:19:04;13.85;;;12.43;;
16957;SDS011;8595;52.542;11.974;2023-11-18T10:21:36;12.70;;;10.57;;
16957;SDS011;8595;52.542;11.974;2023-11-18T10:24:05;11.27;;;9.75;;
16957;SDS011;8595;52.542;11.974;2023-11-18T10:26:39;13.23;;;9.93;;
16957;SDS011;8595;52.542;11.974;2023-11-18T10:29:07;13.52;;;10.80;;
16957;SDS011;8595;52.542;11.974;2023-11-18T10:31:37;14.30;;;11.88;;
16957;SDS011;8595;52.542;11.974;2023-11-18T10:34:12;13.10;;;10.45;;
16957;SDS011;8595;52.542;11.974;2023-11-18T10:36:41;12.18;;;10.75;;
16957;SDS011;8595;52.542;11.974;2023-11-18T10:39:27;11.07;;;9.90;;
16957;SDS011;8595;52.542;11.974;2023-11-18T10:41:58;12.48;;;10.30;;
16957;SDS011;8595;52.542;11.974;2023-11-18T10:44:25;13.75;;;10.38;;
16957;SDS011;8595;52.542;11.974;2023-11-18T10:46:53;11.63;;;10.13;;
16957;SDS011;8595;52.542;11.974;2023-11-18T10:49:23;9.70;;;8.70;;
16957;SDS011;8595;52.542;11.974;2023-11-18T10:51:50;10.02;;;9.13;;
16957;SDS011;8595;52.542;11.974;2023-11-18T10:54:17;9.52;;;7.72;;
16957;SDS011;8595;52.542;11.974;2023-11-18T10:56:46;10.07;;;9.02;;
16957;SDS011;8595;52.542;11.974;2023-11-18T10:59:14;10.15;;;8.70;;
16957;SDS011;8595;52.542;11.974;2023-11-18T11:01:41;9.30;;;8.40;;
16957;SDS011;8595;52.542;11.974;2023-11-18T11:04:10;9.15;;;7.78;;
16957;SDS011;8595;52.542;11.974;2023-11-18T11:06:40;9.52;;;8.43;;
16957;SDS011;8595;52.542;11.974;2023-11-18T11:09:08;14.63;;;8.85;;
16957;SDS011;8595;52.542;11.974;2023-11-18T11:11:44;10.15;;;9.15;;
16957;SDS011;8595;52.542;11.974;2023-11-18T11:14:14;11.93;;;8.00;;
16957;SDS011;8595;52.542;11.974;2023-11-18T11:16:42;12.15;;;10.85;;
16957;SDS011;8595;52.542;11.974;2023-11-18T11:19:25;10.73;;;9.73;;
16957;SDS011;8595;52.542;11.974;2023-11-18T11:21:55;9.32;;;8.32;;
16957;SDS011;8595;52.542;11.974;2023-11-18T11:24:34;10.55;;;9.45;;
16957;SDS011;8595;52.542;11.974;2023-11-18T11:27:09;8.57;;;7.63;;
16957;SDS011;8595;52.542;11.974;2023-11-18T11:29:54;11.00;;;8.38;;
16957;SDS011;8595;52.542;11.974;2023-11-18T11:32:26;9.25;;;8.18;;
16957;SDS011;8595;52.542;11.974;2023-11-18T11:35:06;9.07;;;8.15;;
16957;SDS011;8595;52.542;11.974;2023-11-18T11:37:42;9.35;;;8.32;;
16957;SDS011;8595;52.542;11.974;2023-11-18T11:40:12;8.57;;;7.68;;
16957;SDS011;8595;52.542;11.974;2023-11-18T11:42:47;8.57;;;7.75;;
16957;SDS011;8595;52.542;11.974;2023-11-18T11:45:20;8.52;;;7.47;;
16957;SDS011;8595;52.542;11.974;2023-11-18T11:47:53;7.18;;;6.47;;
16957;SDS011;8595;52.542;11.974;2023-11-18T11:50:40;7.65;;;6.68;;
16957;SDS011;8595;52.542;11.974;2023-11-18T11:53:29;9.00;;;6.82;;
16957;SDS011;8595;52.542;11.974;2023-11-18T11:56:01;7.55;;;6.75;;
16957;SDS011;8595;52.542;11.974;2023-11-18T11:58:32;7.70;;;6.07;;
16957;SDS011;8595;52.542;11.974;2023-11-18T12:01:01;6.93;;;6.20;;
16957;SDS011;8595;52.542;11.974;2023-11-18T12:03:43;6.35;;;5.38;;
16957;SDS011;8595;52.542;11.974;2023-11-18T12:06:16;5.95;;;5.45;;
16957;SDS011;8595;52.542;11.974;2023-11-18T12:08:48;6.15;;;5.55;;
16957;SDS011;8595;52.542;11.974;2023-11-18T12:11:16;6.03;;;5.40;;
16957;SDS011;8595;52.542;11.974;2023-11-18T12:13:59;5.47;;;4.97;;
16957;SDS011;8595;52.542;11.974;2023-11-18T12:19:35;5.75;;;5.25;;
16957;SDS011;8595;52.542;11.974;2023-11-18T12:22:12;6.30;;;5.70;;
16957;SDS011;8595;52.542;11.974;2023-11-18T12:25:28;7.75;;;6.57;;
16957;SDS011;8595;52.542;11.974;2023-11-18T12:27:58;8.68;;;5.35;;
16957;SDS011;8595;52.542;11.974;2023-11-18T12:30:39;6.30;;;4.47;;
16957;SDS011;8595;52.542;11.974;2023-11-18T12:33:17;3.60;;;3.30;;
16957;SDS011;8595;52.542;11.974;2023-11-18T12:35:54;4.00;;;3.55;;
16957;SDS011;8595;52.542;11.974;2023-11-18T12:42:09;4.72;;;3.22;;
16957;SDS011;8595;52.542;11.974;2023-11-18T12:44:46;4.18;;;3.33;;
16957;SDS011;8595;52.542;11.974;2023-11-18T12:47:31;6.13;;;5.07;;
16957;SDS011;8595;52.542;11.974;2023-11-18T12:50:00;6.03;;;5.22;;
16957;SDS011;8595;52.542;11.974;2023-11-18T12:52:42;4.05;;;2.97;;
16957;SDS011;8595;52.542;11.974;2023-11-18T12:55:11;3.17;;;2.88;;
16957;SDS011;8595;52.542;11.974;2023-11-18T12:57:45;3.92;;;2.85;;
16957;SDS011;8595;52.542;11.974;2023-11-18T13:00:13;3.55;;;3.25;;
16957;SDS011;8595;52.542;11.974;2023-11-18T13:02:51;3.47;;;3.17;;
16957;SDS011;8595;52.542;11.974;2023-11-18T13:05:18;3.45;;;3.15;;
16957;SDS011;8595;52.542;11.974;2023-11-18T13:07:45;3.28;;;2.85;;
16957;SDS011;8595;52.542;11.974;2023-11-18T13:10:14;4.07;;;3.67;;
16957;SDS011;8595;52.542;11.974;2023-11-18T13:12:41;4.20;;;3.85;;
16957;SDS011;8595;52.542;11.974;2023-11-18T13:15:10;3.92;;;3.60;;
16957;SDS011;8595;52.542;11.974;2023-11-18T13:17:37;4.38;;;3.78;;
16957;SDS011;8595;52.542;11.974;2023-11-18T13:20:14;5.15;;;4.00;;
16957;SDS011;8595;52.542;11.974;2023-11-18T13:22:42;5.13;;;4.20;;
16957;SDS011;8595;52.542;11.974;2023-11-18T13:25:09;6.00;;;4.72;;
16957;SDS011;8595;52.542;11.974;2023-11-18T13:27:37;4.18;;;3.78;;
16957;SDS011;8595;52.542;11.974;2023-11-18T13:30:05;3.63;;;3.33;;
16957;SDS011;8595;52.542;11.974;2023-11-18T13:32:39;13.53;;;4.13;;
16957;SDS011;8595;52.542;11.974;2023-11-18T13:35:07;3.97;;;3.63;;
16957;SDS011;8595;52.542;11.974;2023-11-18T13:37:34;7.97;;;3.57;;
16957;SDS011;8595;52.542;11.974;2023-11-18T13:40:01;4.43;;;3.97;;
16957;SDS011;8595;52.542;11.974;2023-11-18T13:42:31;4.37;;;3.87;;
16957;SDS011;8595;52.542;11.974;2023-11-18T13:45:00;8.77;;;5.37;;
16957;SDS011;8595;52.542;11.974;2023-11-18T13:47:33;5.65;;;5.10;;
16957;SDS011;8595;52.542;11.974;2023-11-18T13:50:01;7.43;;;4.30;;
16957;SDS011;8595;52.542;11.974;2023-11-18T13:52:33;4.17;;;3.77;;
16957;SDS011;8595;52.542;11.974;2023-11-18T13:55:00;6.07;;;5.30;;
16957;SDS011;8595;52.542;11.974;2023-11-18T13:57:30;6.00;;;4.93;;
16957;SDS011;8595;52.542;11.974;2023-11-18T13:59:57;6.70;;;5.33;;
16957;SDS011;8595;52.542;11.974;2023-11-18T14:02:26;7.17;;;6.27;;
16957;SDS011;8595;52.542;11.974;2023-11-18T14:04:54;8.33;;;6.27;;
16957;SDS011;8595;52.542;11.974;2023-11-18T14:07:22;8.43;;;4.70;;
16957;SDS011;8595;52.542;11.974;2023-11-18T14:09:49;7.67;;;5.50;;
16957;SDS011;8595;52.542;11.974;2023-11-18T14:12:19;5.33;;;4.53;;
16957;SDS011;8595;52.542;11.974;2023-11-18T14:14:47;5.87;;;4.13;;
16957;SDS011;8595;52.542;11.974;2023-11-18T14:17:16;4.93;;;4.07;;
16957;SDS011;8595;52.542;11.974;2023-11-18T14:19:42;6.23;;;4.80;;
16957;SDS011;8595;52.542;11.974;2023-11-18T14:22:09;5.20;;;4.70;;
16957;SDS011;8595;52.542;11.974;2023-11-18T14:24:36;5.53;;;4.83;;
16957;SDS011;8595;52.542;11.974;2023-11-18T14:27:03;5.97;;;5.37;;
16957;SDS011;8595;52.542;11.974;2023-11-18T14:29:32;6.03;;;5.23;;
16957;SDS011;8595;52.542;11.974;2023-11-18T14:32:01;4.80;;;4.40;;
16957;SDS011;8595;52.542;11.974;2023-11-18T14:34:30;5.77;;;5.17;;
16957;SDS011;8595;52.542;11.974;2023-11-18T14:36:56;4.90;;;4.30;;
16957;SDS011;8595;52.542;11.974;2023-11-18T14:39:23;5.50;;;5.00;;
16957;SDS011;8595;52.542;11.974;2023-11-18T14:41:50;6.60;;;4.80;;
16957;SDS011;8595;52.542;11.974;2023-11-18T14:44:18;5.30;;;4.80;;
16957;SDS011;8595;52.542;11.974;2023-11-18T14:46:45;5.23;;;4.43;;
16957;SDS011;8595;52.542;11.974;2023-11-18T14:49:12;7.13;;;4.97;;
16957;SDS011;8595;52.542;11.974;2023-11-18T14:51:40;6.60;;;4.63;;